sensor_id;sensor_type;location;lat;lon;timestamp;pressure;altitude;pressure_sealevel;temperature;humidity
83762;BME280;73752;49.594;8.734;2024-03-06T00:00:54;99644.47;;;3.93;89.72
83762;BME280;73752;49.594;8.734;2024-03-06T00:03:55;99639.09;;;3.94;89.55
83762;BME280;73752;49.594;8.734;2024-03-06T00:06:56;99634.22;;;3.91;89.42
83762;BME280;73752;49.594;8.734;2024-03-06T00:09:58;99642.75;;;3.85;89.20
83762;BME280;73752;49.594;8.734;2024-03-06T00:12:58;99664.78;;;3.83;88.97
83762;BME280;73752;49.594;8.734;2024-03-06T00:15:58;99668.06;;;3.85;89.46
83762;BME280;73752;49.594;8.734;2024-03-06T00:18:58;99674.38;;;3.90;89.23
83762;BME280;73752;49.594;8.734;2024-03-06T00:21:59;99676.53;;;3.87;89.39
83762;BME280;73752;49.594;8.734;2024-03-06T00:25:02;99674.44;;;3.82;89.28
83762;BME280;73752;49.594;8.734;2024-03-06T00:28:03;99675.88;;;3.85;89.18
83762;BME280;73752;49.594;8.734;2024-03-06T00:31:05;99671.13;;;3.88;89.24
83762;BME280;73752;49.594;8.734;2024-03-06T00:34:05;99667.38;;;3.68;88.88
83762;BME280;73752;49.594;8.734;2024-03-06T00:37:06;99683.63;;;3.55;88.54
83762;BME280;73752;49.594;8.734;2024-03-06T00:40:06;99681.53;;;3.51;89.21
83762;BME280;73752;49.594;8.734;2024-03-06T00:43:07;99693.47;;;3.45;89.07
83762;BME280;73752;49.594;8.734;2024-03-06T00:46:07;99690.44;;;3.26;88.95
83762;BME280;73752;49.594;8.734;2024-03-06T00:49:08;99689.16;;;3.22;88.97
83762;BME280;73752;49.594;8.734;2024-03-06T00:52:08;99689.72;;;3.09;89.01
83762;BME280;73752;49.594;8.734;2024-03-06T00:55:09;99687.94;;;3.09;89.32
83762;BME280;73752;49.594;8.734;2024-03-06T00:58:10;99688.75;;;3.10;89.42
83762;BME280;73752;49.594;8.734;2024-03-06T01:01:10;99694.59;;;3.12;89.71
83762;BME280;73752;49.594;8.734;2024-03-06T01:04:11;99692.41;;;3.32;90.05
83762;BME280;73752;49.594;8.734;2024-03-06T01:07:11;99687.38;;;3.22;89.94
83762;BME280;73752;49.594;8.734;2024-03-06T01:10:11;99700.59;;;3.21;90.10
83762;BME280;73752;49.594;8.734;2024-03-06T01:13:12;99695.88;;;3.16;89.95
83762;BME280;73752;49.594;8.734;2024-03-06T01:16:12;99691.97;;;3.12;90.28
83762;BME280;73752;49.594;8.734;2024-03-06T01:19:12;99694.78;;;3.10;90.44
83762;BME280;73752;49.594;8.734;2024-03-06T01:22:13;99690.88;;;3.06;90.79
83762;BME280;73752;49.594;8.734;2024-03-06T01:25:13;99691.63;;;3.23;91.18
83762;BME280;73752;49.594;8.734;2024-03-06T01:28:13;99683.59;;;3.33;90.93
83762;BME280;73752;49.594;8.734;2024-03-06T01:31:14;99690.38;;;3.42;90.56
83762;BME280;73752;49.594;8.734;2024-03-06T01:34:14;99691.16;;;3.20;90.52
83762;BME280;73752;49.594;8.734;2024-03-06T01:37:14;99693.50;;;3.37;90.30
83762;BME280;73752;49.594;8.734;2024-03-06T01:40:15;99691.72;;;3.30;89.87
83762;BME280;73752;49.594;8.734;2024-03-06T01:43:22;99697.59;;;3.32;89.82
83762;BME280;73752;49.594;8.734;2024-03-06T01:46:23;99700.00;;;3.41;89.29
83762;BME280;73752;49.594;8.734;2024-03-06T01:49:23;99705.50;;;3.24;89.20
83762;BME280;73752;49.594;8.734;2024-03-06T01:52:25;99701.91;;;3.17;89.43
83762;BME280;73752;49.594;8.734;2024-03-06T01:55:26;99704.19;;;3.20;89.52
83762;BME280;73752;49.594;8.734;2024-03-06T01:58:26;99699.50;;;3.15;89.16
83762;BME280;73752;49.594;8.734;2024-03-06T02:01:28;99698.19;;;3.11;89.52
83762;BME280;73752;49.594;8.734;2024-03-06T02:04:29;99689.56;;;3.02;89.29
83762;BME280;73752;49.594;8.734;2024-03-06T02:07:32;99688.94;;;3.00;89.22
83762;BME280;73752;49.594;8.734;2024-03-06T02:10:32;99686.31;;;3.08;89.19
83762;BME280;73752;49.594;8.734;2024-03-06T02:13:33;99688.84;;;2.86;89.50
83762;BME280;73752;49.594;8.734;2024-03-06T02:16:34;99696.00;;;2.92;90.06
83762;BME280;73752;49.594;8.734;2024-03-06T02:19:41;99700.91;;;2.87;89.72
83762;BME280;73752;49.594;8.734;2024-03-06T02:22:41;99705.81;;;2.82;89.59
83762;BME280;73752;49.594;8.734;2024-03-06T02:25:42;99698.28;;;2.87;89.75
83762;BME280;73752;49.594;8.734;2024-03-06T02:31:50;99701.69;;;2.95;89.72
83762;BME280;73752;49.594;8.734;2024-03-06T02:34:50;99702.81;;;2.93;89.61
83762;BME280;73752;49.594;8.734;2024-03-06T02:37:50;99704.25;;;3.03;89.71
83762;BME280;73752;49.594;8.734;2024-03-06T02:40:51;99698.88;;;3.05;89.76
83762;BME280;73752;49.594;8.734;2024-03-06T02:43:51;99702.63;;;3.02;89.39
83762;BME280;73752;49.594;8.734;2024-03-06T02:46:52;99705.53;;;3.07;89.47
83762;BME280;73752;49.594;8.734;2024-03-06T02:49:52;99720.19;;;3.17;89.49
83762;BME280;73752;49.594;8.734;2024-03-06T02:52:53;99715.09;;;3.23;89.82
83762;BME280;73752;49.594;8.734;2024-03-06T02:55:53;99708.09;;;3.24;89.44
83762;BME280;73752;49.594;8.734;2024-03-06T02:58:53;99702.22;;;3.22;89.34
83762;BME280;73752;49.594;8.734;2024-03-06T03:01:55;99712.31;;;3.25;89.06
83762;BME280;73752;49.594;8.734;2024-03-06T03:04:55;99711.78;;;3.29;89.34
83762;BME280;73752;49.594;8.734;2024-03-06T03:07:55;99697.31;;;3.27;89.19
83762;BME280;73752;49.594;8.734;2024-03-06T03:10:55;99704.66;;;3.23;89.02
83762;BME280;73752;49.594;8.734;2024-03-06T03:13:57;99698.94;;;3.28;88.68
83762;BME280;73752;49.594;8.734;2024-03-06T03:16:57;99703.84;;;3.23;88.63
83762;BME280;73752;49.594;8.734;2024-03-06T03:19:57;99696.38;;;3.11;89.10
83762;BME280;73752;49.594;8.734;2024-03-06T03:22:58;99693.78;;;3.20;89.25
83762;BME280;73752;49.594;8.734;2024-03-06T03:25:59;99701.19;;;3.00;89.13
83762;BME280;73752;49.594;8.734;2024-03-06T03:29:00;99710.28;;;3.04;89.49
83762;BME280;73752;49.594;8.734;2024-03-06T03:32:00;99714.34;;;3.06;89.63
83762;BME280;73752;49.594;8.734;2024-03-06T03:35:00;99711.78;;;2.98;89.55
83762;BME280;73752;49.594;8.734;2024-03-06T03:38:01;99710.78;;;2.99;89.16
83762;BME280;73752;49.594;8.734;2024-03-06T03:41:02;99718.69;;;2.75;89.31
83762;BME280;73752;49.594;8.734;2024-03-06T03:44:04;99717.53;;;2.86;89.63
83762;BME280;73752;49.594;8.734;2024-03-06T03:47:04;99706.28;;;2.85;89.27
83762;BME280;73752;49.594;8.734;2024-03-06T03:50:05;99705.81;;;2.82;89.33
83762;BME280;73752;49.594;8.734;2024-03-06T03:53:05;99714.09;;;2.85;89.32
83762;BME280;73752;49.594;8.734;2024-03-06T03:56:06;99715.22;;;2.91;89.48
83762;BME280;73752;49.594;8.734;2024-03-06T03:59:06;99714.72;;;2.95;89.51
83762;BME280;73752;49.594;8.734;2024-03-06T04:02:08;99712.47;;;2.84;89.36
83762;BME280;73752;49.594;8.734;2024-03-06T04:05:08;99721.41;;;2.90;89.36
83762;BME280;73752;49.594;8.734;2024-03-06T04:08:09;99728.09;;;2.84;89.24
83762;BME280;73752;49.594;8.734;2024-03-06T04:11:09;99733.16;;;2.86;89.48
83762;BME280;73752;49.594;8.734;2024-03-06T04:14:10;99734.81;;;2.87;89.29
83762;BME280;73752;49.594;8.734;2024-03-06T04:17:10;99728.94;;;2.77;89.14
83762;BME280;73752;49.594;8.734;2024-03-06T04:20:11;99734.97;;;2.77;89.21
83762;BME280;73752;49.594;8.734;2024-03-06T04:23:12;99729.13;;;2.83;89.35
83762;BME280;73752;49.594;8.734;2024-03-06T04:26:13;99729.25;;;2.90;89.69
83762;BME280;73752;49.594;8.734;2024-03-06T04:29:13;99738.03;;;2.97;89.90
83762;BME280;73752;49.594;8.734;2024-03-06T04:32:13;99735.44;;;2.97;89.70
83762;BME280;73752;49.594;8.734;2024-03-06T04:35:15;99742.56;;;3.03;89.67
83762;BME280;73752;49.594;8.734;2024-03-06T04:38:15;99742.91;;;3.00;89.28
83762;BME280;73752;49.594;8.734;2024-03-06T04:41:18;99753.84;;;2.95;89.65
83762;BME280;73752;49.594;8.734;2024-03-06T04:44:19;99747.16;;;2.93;89.57
83762;BME280;73752;49.594;8.734;2024-03-06T04:47:19;99748.97;;;2.92;89.14
83762;BME280;73752;49.594;8.734;2024-03-06T04:50:19;99749.00;;;2.76;89.20
83762;BME280;73752;49.594;8.734;2024-03-06T04:53:19;99757.16;;;2.73;89.49
83762;BME280;73752;49.594;8.734;2024-03-06T04:56:22;99769.69;;;2.61;89.76
83762;BME280;73752;49.594;8.734;2024-03-06T04:59:23;99774.13;;;2.69;90.26
83762;BME280;73752;49.594;8.734;2024-03-06T05:02:23;99768.06;;;2.77;90.33
83762;BME280;73752;49.594;8.734;2024-03-06T05:05:24;99776.34;;;2.96;90.12
83762;BME280;73752;49.594;8.734;2024-03-06T05:08:25;99775.84;;;2.93;89.99
83762;BME280;73752;49.594;8.734;2024-03-06T05:11:25;99783.16;;;2.97;89.80
83762;BME280;73752;49.594;8.734;2024-03-06T05:14:25;99796.69;;;2.93;89.62
83762;BME280;73752;49.594;8.734;2024-03-06T05:17:26;99795.91;;;2.92;89.45
83762;BME280;73752;49.594;8.734;2024-03-06T05:20:26;99795.75;;;2.86;89.66
83762;BME280;73752;49.594;8.734;2024-03-06T05:23:27;99790.19;;;2.89;89.57
83762;BME280;73752;49.594;8.734;2024-03-06T05:26:27;99799.81;;;2.96;89.62
83762;BME280;73752;49.594;8.734;2024-03-06T05:29:28;99797.38;;;2.95;89.15
83762;BME280;73752;49.594;8.734;2024-03-06T05:32:28;99800.44;;;2.98;89.45
83762;BME280;73752;49.594;8.734;2024-03-06T05:35:28;99798.66;;;2.99;89.07
83762;BME280;73752;49.594;8.734;2024-03-06T05:38:29;99802.56;;;3.03;88.94
83762;BME280;73752;49.594;8.734;2024-03-06T05:41:30;99809.09;;;2.99;89.00
83762;BME280;73752;49.594;8.734;2024-03-06T05:44:31;99809.25;;;2.97;88.95
83762;BME280;73752;49.594;8.734;2024-03-06T05:47:32;99815.78;;;3.01;88.81
83762;BME280;73752;49.594;8.734;2024-03-06T05:50:32;99818.06;;;2.96;88.83
83762;BME280;73752;49.594;8.734;2024-03-06T05:53:39;99826.53;;;2.98;88.61
83762;BME280;73752;49.594;8.734;2024-03-06T05:56:40;99821.97;;;2.84;88.52
83762;BME280;73752;49.594;8.734;2024-03-06T05:59:42;99836.03;;;2.83;88.68
83762;BME280;73752;49.594;8.734;2024-03-06T06:02:42;99832.44;;;2.76;88.91
83762;BME280;73752;49.594;8.734;2024-03-06T06:05:43;99844.97;;;2.89;89.30
83762;BME280;73752;49.594;8.734;2024-03-06T06:08:43;99844.47;;;3.01;89.19
83762;BME280;73752;49.594;8.734;2024-03-06T06:11:46;99855.53;;;3.11;89.46
83762;BME280;73752;49.594;8.734;2024-03-06T06:14:47;99863.19;;;3.21;89.69
83762;BME280;73752;49.594;8.734;2024-03-06T06:17:48;99860.22;;;3.32;89.60
83762;BME280;73752;49.594;8.734;2024-03-06T06:20:48;99866.56;;;3.38;88.97
83762;BME280;73752;49.594;8.734;2024-03-06T06:23:48;99863.63;;;3.41;89.24
83762;BME280;73752;49.594;8.734;2024-03-06T06:26:48;99879.09;;;3.50;89.49
83762;BME280;73752;49.594;8.734;2024-03-06T06:29:49;99875.00;;;3.56;89.01
83762;BME280;73752;49.594;8.734;2024-03-06T06:32:49;99875.97;;;3.63;89.00
83762;BME280;73752;49.594;8.734;2024-03-06T06:35:49;99879.50;;;3.70;89.30
83762;BME280;73752;49.594;8.734;2024-03-06T06:38:52;99884.38;;;3.81;89.27
83762;BME280;73752;49.594;8.734;2024-03-06T06:41:53;99877.16;;;3.83;88.77
83762;BME280;73752;49.594;8.734;2024-03-06T06:44:53;99881.06;;;3.87;88.56
83762;BME280;73752;49.594;8.734;2024-03-06T06:47:53;99889.06;;;3.94;88.80
83762;BME280;73752;49.594;8.734;2024-03-06T06:50:54;99880.53;;;4.00;88.53
83762;BME280;73752;49.594;8.734;2024-03-06T06:53:54;99891.94;;;4.07;88.39
83762;BME280;73752;49.594;8.734;2024-03-06T06:56:55;99896.00;;;4.10;88.46
83762;BME280;73752;49.594;8.734;2024-03-06T06:59:55;99897.63;;;4.11;88.22
83762;BME280;73752;49.594;8.734;2024-03-06T07:02:56;99909.03;;;4.18;87.96
83762;BME280;73752;49.594;8.734;2024-03-06T07:05:58;99902.69;;;4.12;87.57
83762;BME280;73752;49.594;8.734;2024-03-06T07:08:58;99913.13;;;4.12;87.28
83762;BME280;73752;49.594;8.734;2024-03-06T07:11:59;99911.81;;;4.16;87.58
83762;BME280;73752;49.594;8.734;2024-03-06T07:14:59;99921.38;;;4.24;88.14
83762;BME280;73752;49.594;8.734;2024-03-06T07:18:00;99915.63;;;4.36;88.14
83762;BME280;73752;49.594;8.734;2024-03-06T07:21:00;99915.66;;;4.59;88.46
83762;BME280;73752;49.594;8.734;2024-03-06T07:24:01;99912.56;;;4.78;88.73
83762;BME280;73752;49.594;8.734;2024-03-06T07:27:01;99920.63;;;4.91;88.12
83762;BME280;73752;49.594;8.734;2024-03-06T07:30:02;99917.03;;;4.92;87.41
83762;BME280;73752;49.594;8.734;2024-03-06T07:33:02;99919.53;;;5.09;87.90
83762;BME280;73752;49.594;8.734;2024-03-06T07:36:03;99928.44;;;5.14;86.81
83762;BME280;73752;49.594;8.734;2024-03-06T07:39:04;99925.38;;;5.11;84.72
83762;BME280;73752;49.594;8.734;2024-03-06T07:42:04;99941.59;;;5.06;85.09
83762;BME280;73752;49.594;8.734;2024-03-06T07:45:05;99944.50;;;5.11;83.23
83762;BME280;73752;49.594;8.734;2024-03-06T07:48:07;99944.75;;;5.02;83.71
83762;BME280;73752;49.594;8.734;2024-03-06T07:51:10;99945.72;;;5.01;84.06
83762;BME280;73752;49.594;8.734;2024-03-06T07:54:10;99953.06;;;5.05;85.43
83762;BME280;73752;49.594;8.734;2024-03-06T07:57:10;99951.16;;;5.22;85.25
83762;BME280;73752;49.594;8.734;2024-03-06T08:00:11;99954.94;;;5.34;84.90
83762;BME280;73752;49.594;8.734;2024-03-06T08:03:14;99954.78;;;5.50;85.21
83762;BME280;73752;49.594;8.734;2024-03-06T08:06:15;99962.41;;;5.74;85.92
83762;BME280;73752;49.594;8.734;2024-03-06T08:09:18;99962.25;;;6.05;86.70
83762;BME280;73752;49.594;8.734;2024-03-06T08:12:19;99964.75;;;6.28;86.38
83762;BME280;73752;49.594;8.734;2024-03-06T08:15:19;99976.38;;;6.55;86.16
83762;BME280;73752;49.594;8.734;2024-03-06T08:18:21;99970.16;;;6.77;84.58
83762;BME280;73752;49.594;8.734;2024-03-06T08:21:22;99970.84;;;6.86;81.14
83762;BME280;73752;49.594;8.734;2024-03-06T08:24:23;99977.22;;;6.98;82.36
83762;BME280;73752;49.594;8.734;2024-03-06T08:27:23;99966.16;;;7.02;80.85
83762;BME280;73752;49.594;8.734;2024-03-06T08:30:23;99972.53;;;7.14;81.30
83762;BME280;73752;49.594;8.734;2024-03-06T08:33:23;99961.19;;;7.35;82.10
83762;BME280;73752;49.594;8.734;2024-03-06T08:36:25;99972.09;;;7.60;81.30
83762;BME280;73752;49.594;8.734;2024-03-06T08:39:25;99959.53;;;7.55;78.04
83762;BME280;73752;49.594;8.734;2024-03-06T08:42:27;99979.44;;;7.71;78.59
83762;BME280;73752;49.594;8.734;2024-03-06T08:45:27;99976.81;;;8.05;80.54
83762;BME280;73752;49.594;8.734;2024-03-06T08:48:27;99979.25;;;8.48;80.16
83762;BME280;73752;49.594;8.734;2024-03-06T08:51:28;99977.97;;;9.05;79.45
83762;BME280;73752;49.594;8.734;2024-03-06T08:54:28;99973.91;;;9.55;78.49
83762;BME280;73752;49.594;8.734;2024-03-06T08:57:32;99981.34;;;9.97;76.58
83762;BME280;73752;49.594;8.734;2024-03-06T09:00:32;99983.13;;;10.23;76.87
83762;BME280;73752;49.594;8.734;2024-03-06T09:03:32;99981.56;;;10.60;69.47
83762;BME280;73752;49.594;8.734;2024-03-06T09:06:33;99980.50;;;10.67;71.51
83762;BME280;73752;49.594;8.734;2024-03-06T09:09:34;99984.03;;;10.93;71.15
83762;BME280;73752;49.594;8.734;2024-03-06T09:12:34;99980.81;;;11.40;68.64
83762;BME280;73752;49.594;8.734;2024-03-06T09:15:35;99977.16;;;11.66;66.30
83762;BME280;73752;49.594;8.734;2024-03-06T09:18:35;99973.69;;;11.90;65.15
83762;BME280;73752;49.594;8.734;2024-03-06T09:21:35;99983.47;;;12.08;64.06
83762;BME280;73752;49.594;8.734;2024-03-06T09:24:36;99980.75;;;12.15;63.52
83762;BME280;73752;49.594;8.734;2024-03-06T09:27:38;99981.25;;;12.23;62.95
83762;BME280;73752;49.594;8.734;2024-03-06T09:30:38;99978.81;;;12.22;62.12
83762;BME280;73752;49.594;8.734;2024-03-06T09:33:39;99977.81;;;12.04;62.58
83762;BME280;73752;49.594;8.734;2024-03-06T09:36:41;99976.69;;;11.94;61.93
83762;BME280;73752;49.594;8.734;2024-03-06T09:39:44;99980.38;;;11.75;64.24
83762;BME280;73752;49.594;8.734;2024-03-06T09:42:51;99984.06;;;11.92;62.62
83762;BME280;73752;49.594;8.734;2024-03-06T09:45:52;99976.19;;;12.22;63.37
83762;BME280;73752;49.594;8.734;2024-03-06T09:48:53;99979.97;;;12.62;61.68
83762;BME280;73752;49.594;8.734;2024-03-06T09:51:54;99976.72;;;12.90;61.13
83762;BME280;73752;49.594;8.734;2024-03-06T09:54:55;99996.94;;;12.73;59.86
83762;BME280;73752;49.594;8.734;2024-03-06T09:57:57;99994.19;;;12.31;60.15
83762;BME280;73752;49.594;8.734;2024-03-06T10:01:00;99998.00;;;11.99;62.34
83762;BME280;73752;49.594;8.734;2024-03-06T10:04:17;99999.69;;;11.75;61.69
83762;BME280;73752;49.594;8.734;2024-03-06T10:07:17;100004.91;;;11.57;63.16
83762;BME280;73752;49.594;8.734;2024-03-06T10:10:20;100001.97;;;11.65;64.71
83762;BME280;73752;49.594;8.734;2024-03-06T10:13:24;100003.56;;;11.73;64.19
83762;BME280;73752;49.594;8.734;2024-03-06T10:16:25;100005.59;;;12.14;62.99
83762;BME280;73752;49.594;8.734;2024-03-06T10:19:26;100006.22;;;12.64;61.53
83762;BME280;73752;49.594;8.734;2024-03-06T10:22:27;100010.84;;;12.98;60.99
83762;BME280;73752;49.594;8.734;2024-03-06T10:25:28;100000.59;;;13.31;58.49
83762;BME280;73752;49.594;8.734;2024-03-06T10:28:28;100008.91;;;13.47;56.75
83762;BME280;73752;49.594;8.734;2024-03-06T10:31:28;100004.66;;;13.46;57.76
83762;BME280;73752;49.594;8.734;2024-03-06T10:34:29;100011.94;;;13.97;56.98
83762;BME280;73752;49.594;8.734;2024-03-06T10:37:29;100004.84;;;14.37;56.19
83762;BME280;73752;49.594;8.734;2024-03-06T10:40:34;100003.50;;;14.91;53.66
83762;BME280;73752;49.594;8.734;2024-03-06T10:43:36;100001.94;;;15.07;51.87
83762;BME280;73752;49.594;8.734;2024-03-06T10:46:38;100005.09;;;15.21;49.34
83762;BME280;73752;49.594;8.734;2024-03-06T10:49:39;100004.94;;;15.27;50.75
83762;BME280;73752;49.594;8.734;2024-03-06T10:52:44;100005.91;;;14.76;52.09
83762;BME280;73752;49.594;8.734;2024-03-06T10:55:47;99996.56;;;14.10;52.85
83762;BME280;73752;49.594;8.734;2024-03-06T10:58:50;99997.78;;;14.54;54.13
83762;BME280;73752;49.594;8.734;2024-03-06T11:01:52;100007.88;;;14.97;52.28
83762;BME280;73752;49.594;8.734;2024-03-06T11:04:53;99995.81;;;15.23;50.59
83762;BME280;73752;49.594;8.734;2024-03-06T11:07:54;99995.19;;;15.49;48.78
83762;BME280;73752;49.594;8.734;2024-03-06T11:11:21;99998.09;;;15.31;49.45
83762;BME280;73752;49.594;8.734;2024-03-06T11:14:23;100002.75;;;14.79;51.44
83762;BME280;73752;49.594;8.734;2024-03-06T11:17:27;100003.00;;;14.49;53.01
83762;BME280;73752;49.594;8.734;2024-03-06T11:20:33;100000.41;;;13.45;54.39
83762;BME280;73752;49.594;8.734;2024-03-06T11:23:33;100001.50;;;13.14;54.99
83762;BME280;73752;49.594;8.734;2024-03-06T11:26:35;99996.66;;;12.63;58.58
83762;BME280;73752;49.594;8.734;2024-03-06T11:30:05;100004.06;;;13.02;56.45
83762;BME280;73752;49.594;8.734;2024-03-06T11:33:17;100003.88;;;12.74;55.90
83762;BME280;73752;49.594;8.734;2024-03-06T11:39:20;100002.69;;;13.00;54.18
83762;BME280;73752;49.594;8.734;2024-03-06T11:42:32;99998.47;;;13.10;53.52
83762;BME280;73752;49.594;8.734;2024-03-06T11:45:44;99994.59;;;12.94;53.71
83762;BME280;73752;49.594;8.734;2024-03-06T11:48:51;100005.94;;;11.81;57.16
83762;BME280;73752;49.594;8.734;2024-03-06T11:51:53;100020.41;;;10.53;61.93
83762;BME280;73752;49.594;8.734;2024-03-06T11:54:54;100014.81;;;10.23;63.34
83762;BME280;73752;49.594;8.734;2024-03-06T11:57:54;100014.44;;;9.93;64.29
83762;BME280;73752;49.594;8.734;2024-03-06T12:00:54;100002.88;;;9.94;63.66
83762;BME280;73752;49.594;8.734;2024-03-06T12:03:55;99998.97;;;10.10;63.46
83762;BME280;73752;49.594;8.734;2024-03-06T12:06:58;100006.94;;;9.90;64.10
83762;BME280;73752;49.594;8.734;2024-03-06T12:10:00;100011.16;;;10.11;63.99
83762;BME280;73752;49.594;8.734;2024-03-06T12:13:00;100010.16;;;10.05;62.97
83762;BME280;73752;49.594;8.734;2024-03-06T12:16:04;100007.56;;;9.79;64.24
83762;BME280;73752;49.594;8.734;2024-03-06T12:19:06;100002.47;;;9.77;63.84
83762;BME280;73752;49.594;8.734;2024-03-06T12:22:06;100009.75;;;10.08;64.02
83762;BME280;73752;49.594;8.734;2024-03-06T12:25:09;100003.69;;;10.65;61.10
83762;BME280;73752;49.594;8.734;2024-03-06T12:28:10;100013.31;;;10.40;62.18
83762;BME280;73752;49.594;8.734;2024-03-06T12:31:11;100017.47;;;10.67;61.13
83762;BME280;73752;49.594;8.734;2024-03-06T12:34:15;100015.25;;;10.64;61.32
83762;BME280;73752;49.594;8.734;2024-03-06T12:37:17;100013.13;;;11.17;59.74
83762;BME280;73752;49.594;8.734;2024-03-06T12:40:19;100020.84;;;10.81;60.61
83762;BME280;73752;49.594;8.734;2024-03-06T12:43:19;100021.41;;;10.90;60.02
83762;BME280;73752;49.594;8.734;2024-03-06T12:46:19;100015.56;;;11.19;59.01
83762;BME280;73752;49.594;8.734;2024-03-06T12:49:20;100015.75;;;11.17;59.71
83762;BME280;73752;49.594;8.734;2024-03-06T12:52:20;100004.09;;;11.56;57.53
83762;BME280;73752;49.594;8.734;2024-03-06T12:55:20;100006.28;;;11.35;58.30
83762;BME280;73752;49.594;8.734;2024-03-06T12:58:21;100004.25;;;11.12;58.32
83762;BME280;73752;49.594;8.734;2024-03-06T13:01:21;100007.66;;;10.81;60.02
83762;BME280;73752;49.594;8.734;2024-03-06T13:04:21;99997.78;;;11.33;58.43
83762;BME280;73752;49.594;8.734;2024-03-06T13:07:21;99993.16;;;11.71;57.13
83762;BME280;73752;49.594;8.734;2024-03-06T13:10:22;99981.84;;;12.25;55.50
83762;BME280;73752;49.594;8.734;2024-03-06T13:13:22;99997.50;;;12.27;55.12
83762;BME280;73752;49.594;8.734;2024-03-06T13:16:25;99998.97;;;11.86;55.20
83762;BME280;73752;49.594;8.734;2024-03-06T13:19:25;100000.81;;;11.61;57.34
83762;BME280;73752;49.594;8.734;2024-03-06T13:22:26;99991.66;;;11.07;59.54
83762;BME280;73752;49.594;8.734;2024-03-06T13:25:26;99999.16;;;10.79;59.70
83762;BME280;73752;49.594;8.734;2024-03-06T13:28:26;99993.44;;;10.82;60.48
83762;BME280;73752;49.594;8.734;2024-03-06T13:31:27;99993.88;;;11.60;58.91
83762;BME280;73752;49.594;8.734;2024-03-06T13:34:27;99988.44;;;11.55;59.07
83762;BME280;73752;49.594;8.734;2024-03-06T13:37:27;99997.22;;;11.24;58.95
83762;BME280;73752;49.594;8.734;2024-03-06T13:40:28;100004.63;;;11.15;60.17
83762;BME280;73752;49.594;8.734;2024-03-06T13:43:28;99996.00;;;10.95;61.42
83762;BME280;73752;49.594;8.734;2024-03-06T13:46:28;99997.59;;;11.28;60.32
83762;BME280;73752;49.594;8.734;2024-03-06T13:49:37;99993.00;;;10.85;61.87
83762;BME280;73752;49.594;8.734;2024-03-06T13:52:38;99997.19;;;10.99;62.72
83762;BME280;73752;49.594;8.734;2024-03-06T13:55:38;99998.59;;;10.64;63.17
83762;BME280;73752;49.594;8.734;2024-03-06T13:58:40;100007.13;;;10.02;66.02
83762;BME280;73752;49.594;8.734;2024-03-06T14:01:40;100008.34;;;9.99;66.89
83762;BME280;73752;49.594;8.734;2024-03-06T14:04:41;100005.75;;;9.86;66.43
83762;BME280;73752;49.594;8.734;2024-03-06T14:07:41;100010.19;;;9.92;67.25
83762;BME280;73752;49.594;8.734;2024-03-06T14:10:41;100008.59;;;9.71;68.48
83762;BME280;73752;49.594;8.734;2024-03-06T14:13:42;100012.03;;;9.65;68.42
83762;BME280;73752;49.594;8.734;2024-03-06T14:16:42;100009.00;;;9.62;70.31
83762;BME280;73752;49.594;8.734;2024-03-06T14:19:42;100008.59;;;9.58;70.95
83762;BME280;73752;49.594;8.734;2024-03-06T14:22:44;100018.75;;;9.48;70.30
83762;BME280;73752;49.594;8.734;2024-03-06T14:25:45;100025.81;;;9.34;71.57
83762;BME280;73752;49.594;8.734;2024-03-06T14:28:45;100023.41;;;9.26;71.15
83762;BME280;73752;49.594;8.734;2024-03-06T14:31:45;100026.81;;;9.20;70.75
83762;BME280;73752;49.594;8.734;2024-03-06T14:34:46;100028.03;;;9.05;71.43
83762;BME280;73752;49.594;8.734;2024-03-06T14:37:47;100024.97;;;9.01;72.76
83762;BME280;73752;49.594;8.734;2024-03-06T14:40:49;100034.97;;;8.65;74.95
83762;BME280;73752;49.594;8.734;2024-03-06T14:43:49;100029.06;;;8.49;76.90
83762;BME280;73752;49.594;8.734;2024-03-06T14:46:49;100028.41;;;8.41;77.77
83762;BME280;73752;49.594;8.734;2024-03-06T14:49:50;100030.66;;;8.44;77.41
83762;BME280;73752;49.594;8.734;2024-03-06T14:52:50;100025.16;;;8.39;78.51
83762;BME280;73752;49.594;8.734;2024-03-06T14:55:50;100025.63;;;8.56;79.29
83762;BME280;73752;49.594;8.734;2024-03-06T14:58:51;100036.28;;;8.88;78.29
83762;BME280;73752;49.594;8.734;2024-03-06T15:01:51;100026.78;;;8.94;76.99
83762;BME280;73752;49.594;8.734;2024-03-06T15:04:52;100027.81;;;9.00;76.87
83762;BME280;73752;49.594;8.734;2024-03-06T15:07:52;100031.00;;;8.88;77.91
83762;BME280;73752;49.594;8.734;2024-03-06T15:10:52;100029.63;;;8.99;77.15
83762;BME280;73752;49.594;8.734;2024-03-06T15:13:54;100028.59;;;8.87;78.06
83762;BME280;73752;49.594;8.734;2024-03-06T15:16:54;100030.22;;;8.94;78.46
83762;BME280;73752;49.594;8.734;2024-03-06T15:19:54;100036.31;;;9.15;78.25
83762;BME280;73752;49.594;8.734;2024-03-06T15:22:54;100034.91;;;9.12;78.05
83762;BME280;73752;49.594;8.734;2024-03-06T15:25:55;100037.56;;;9.19;77.79
83762;BME280;73752;49.594;8.734;2024-03-06T15:28:55;100034.53;;;9.22;77.00
83762;BME280;73752;49.594;8.734;2024-03-06T15:31:56;100028.44;;;9.21;76.20
83762;BME280;73752;49.594;8.734;2024-03-06T15:34:56;100027.03;;;9.25;77.00
83762;BME280;73752;49.594;8.734;2024-03-06T15:37:58;100035.94;;;9.24;77.04
83762;BME280;73752;49.594;8.734;2024-03-06T15:40:58;100024.63;;;9.30;77.08
83762;BME280;73752;49.594;8.734;2024-03-06T15:43:58;100032.09;;;9.20;77.42
83762;BME280;73752;49.594;8.734;2024-03-06T15:46:59;100031.47;;;9.12;77.99
83762;BME280;73752;49.594;8.734;2024-03-06T15:49:59;100037.16;;;9.22;76.92
83762;BME280;73752;49.594;8.734;2024-03-06T15:52:59;100035.94;;;9.05;77.20
83762;BME280;73752;49.594;8.734;2024-03-06T15:56:00;100037.53;;;8.99;76.06
83762;BME280;73752;49.594;8.734;2024-03-06T15:59:00;100046.44;;;8.98;76.39
83762;BME280;73752;49.594;8.734;2024-03-06T16:02:01;100037.53;;;9.06;76.19
83762;BME280;73752;49.594;8.734;2024-03-06T16:05:01;100042.56;;;8.94;76.64
83762;BME280;73752;49.594;8.734;2024-03-06T16:08:01;100040.31;;;8.84;76.75
83762;BME280;73752;49.594;8.734;2024-03-06T16:11:02;100039.50;;;8.84;76.63